Time;durP1;ratioP1;P1;durP2;ratioP2;P2;SDS_P1;SDS_P2;PMS_P1;PMS_P2;Temp;Humidity;BMP_temperature;BMP_pressure;BME280_temperature;BME280_humidity;BME280_pressure;Samples;Min_cycle;Max_cycle;Signal;HPM_P1;HPM_P2
2023/05/10 00:00:34;;;;;;;0.15;0.15;;;13.80;99.90;;;;;;4991272;28;20128;-88
2023/05/10 00:03:05;;;;;;;0.20;0.20;;;13.70;99.90;;;;;;4991099;28;20473;-88
2023/05/10 00:05:31;;;;;;;0.20;0.20;;;13.70;99.90;;;;;;5010041;28;20080;-89
2023/05/10 00:07:57;;;;;;;0.13;0.13;;;13.60;99.90;;;;;;4994153;28;20052;-90
2023/05/10 00:10:23;;;;;;;0.10;0.10;;;13.60;99.90;;;;;;4993166;28;20042;-90
2023/05/10 00:12:48;;;;;;;0.20;0.20;;;13.50;99.90;;;;;;4984803;28;20332;-90
2023/05/10 00:15:17;;;;;;;0.10;0.10;;;13.50;99.90;;;;;;5005466;28;20046;-90
2023/05/10 00:17:42;;;;;;;0.20;0.20;;;13.50;99.90;;;;;;5012241;28;20053;-88
2023/05/10 00:20:11;;;;;;;0.13;0.13;;;13.40;99.90;;;;;;5000021;28;20045;-90
2023/05/10 00:22:36;;;;;;;0.10;0.10;;;13.40;99.90;;;;;;4999337;28;20095;-91
2023/05/10 00:25:02;;;;;;;0.20;0.20;;;13.20;99.90;;;;;;5020183;28;20038;-92
2023/05/10 00:27:28;;;;;;;0.20;0.20;;;13.30;99.90;;;;;;4997829;28;20061;-91
2023/05/10 00:29:53;;;;;;;0.20;0.20;;;13.30;99.90;;;;;;4994612;28;20514;-88
2023/05/10 00:32:20;;;;;;;0.17;0.17;;;;;;;;;;4998542;28;20045;-92
2023/05/10 00:34:46;;;;;;;0.10;0.10;;;13.20;99.90;;;;;;5008955;28;20049;-91
2023/05/10 00:37:11;;;;;;;0.10;0.10;;;13.20;99.90;;;;;;5017960;28;20037;-91
2023/05/10 00:39:37;;;;;;;0.10;0.10;;;13.10;99.90;;;;;;5017966;28;20042;-93
2023/05/10 00:42:04;;;;;;;0.20;0.20;;;13.10;99.90;;;;;;5018038;28;20116;-91
2023/05/10 00:44:30;;;;;;;0.20;0.20;;;13.20;99.90;;;;;;5018891;28;20076;-93
2023/05/10 00:46:57;;;;;;;0.20;0.20;;;13.10;99.90;;;;;;5018387;28;20053;-94
2023/05/10 00:49:23;;;;;;;0.20;0.20;;;;;;;;;;5019385;28;20103;-93
2023/05/10 00:51:50;;;;;;;0.13;0.13;;;13.10;99.90;;;;;;5002330;28;20042;-93
2023/05/10 00:54:16;;;;;;;0.20;0.20;;;13.10;99.90;;;;;;5019669;28;20061;-91
2023/05/10 00:56:48;;;;;;;0.20;0.20;;;;;;;;;;5000786;28;20045;-94
2023/05/10 00:59:17;;;;;;;0.10;0.10;;;13.10;99.90;;;;;;5016831;28;20054;-94
2023/05/10 01:01:47;;;;;;;0.20;0.20;;;13.00;99.90;;;;;;5006165;28;20037;-93
2023/05/10 01:04:13;;;;;;;0.20;0.20;;;13.10;99.90;;;;;;5003405;28;20581;-91
2023/05/10 01:06:43;;;;;;;0.17;0.17;;;13.00;99.90;;;;;;4992257;28;20431;-92
2023/05/10 01:14:21;;;;;;;0.10;0.10;;;13.00;99.90;;;;;;5136635;23;20070;-94
2023/05/10 01:16:49;;;;;;;0.10;0.10;;;13.00;99.90;;;;;;4998941;28;20040;-90
2023/05/10 01:19:26;;;;;;;0.20;0.20;;;13.00;99.90;;;;;;5005511;28;20054;-86
2023/05/10 01:24:48;;;;;;;0.10;0.10;;;12.90;99.90;;;;;;5030770;23;20055;-91
2023/05/10 01:27:57;;;;;;;0.15;0.15;;;12.80;99.90;;;;;;5003191;28;20080;-90
2023/05/10 01:30:59;;;;;;;0.20;0.20;;;12.90;99.90;;;;;;4993687;28;20053;-90
2023/05/10 01:33:30;;;;;;;0.13;0.13;;;12.90;99.90;;;;;;4994369;28;20050;-90
2023/05/10 01:36:12;;;;;;;0.15;0.15;;;12.80;99.90;;;;;;5021776;28;20042;-89
2023/05/10 01:38:46;;;;;;;0.20;0.20;;;12.90;99.90;;;;;;5007892;28;20053;-91
2023/05/10 01:41:36;;;;;;;0.20;0.20;;;12.80;99.90;;;;;;5000583;28;20420;-92
2023/05/10 01:44:20;;;;;;;0.20;0.20;;;12.80;99.90;;;;;;4987822;28;20476;-88
2023/05/10 01:46:53;;;;;;;0.20;0.20;;;12.80;99.90;;;;;;5012675;28;20109;-89
2023/05/10 01:49:35;;;;;;;0.17;0.17;;;12.80;99.90;;;;;;5012831;28;20041;-92
2023/05/10 01:52:09;;;;;;;0.10;0.10;;;12.80;99.90;;;;;;4994447;28;20038;-91
2023/05/10 01:54:38;;;;;;;0.20;0.20;;;12.80;99.90;;;;;;4996738;28;20060;-92
2023/05/10 01:57:08;;;;;;;0.10;0.10;;;12.80;99.90;;;;;;5015665;28;20034;-91
2023/05/10 01:59:36;;;;;;;0.10;0.10;;;12.80;99.90;;;;;;5003149;28;20652;-91
2023/05/10 02:02:04;;;;;;;0.20;0.20;;;12.80;99.90;;;;;;4994917;28;20390;-88
2023/05/10 02:04:30;;;;;;;0.10;0.10;;;12.80;99.90;;;;;;4994370;28;20108;-90
2023/05/10 02:06:57;;;;;;;0.20;0.20;;;12.80;99.90;;;;;;4994455;28;20045;-88
2023/05/10 02:09:25;;;;;;;0.20;0.20;;;12.80;99.90;;;;;;5013135;28;20069;-90
2023/05/10 02:11:51;;;;;;;0.10;0.10;;;12.40;99.90;;;;;;4993933;28;20439;-90
2023/05/10 02:14:19;;;;;;;0.20;0.20;;;12.80;99.90;;;;;;4991412;28;20129;-91
2023/05/10 02:16:46;;;;;;;0.20;0.20;;;12.80;99.90;;;;;;5012879;28;20048;-89
2023/05/10 02:19:15;;;;;;;0.10;0.10;;;12.80;99.90;;;;;;5037662;23;20115;-91
2023/05/10 02:21:42;;;;;;;0.10;0.10;;;12.70;99.90;;;;;;5036214;28;20041;-91
2023/05/10 02:24:25;;;;;;;0.20;0.20;;;12.70;99.90;;;;;;5033744;28;20047;-88
2023/05/10 02:26:53;;;;;;;0.20;0.20;;;12.70;99.90;;;;;;5032217;28;20500;-87
2023/05/10 02:32:11;;;;;;;0.10;0.10;;;12.80;99.90;;;;;;5028044;28;20072;-87
2023/05/10 02:34:38;;;;;;;0.10;0.10;;;12.70;99.90;;;;;;5031781;28;20041;-89
2023/05/10 02:37:06;;;;;;;0.20;0.20;;;12.70;99.90;;;;;;5019580;28;20103;-88
2023/05/10 02:39:43;;;;;;;0.10;0.10;;;12.70;99.90;;;;;;5034769;28;20049;-88
2023/05/10 02:42:27;;;;;;;0.20;0.20;;;12.70;99.90;;;;;;5023637;28;20049;-89
2023/05/10 02:45:08;;;;;;;0.10;0.10;;;12.90;99.90;;;;;;5008385;28;20044;-90
2023/05/10 02:47:34;;;;;;;0.20;0.20;;;12.70;99.90;;;;;;5009239;28;20045;-89
2023/05/10 02:50:00;;;;;;;0.20;0.20;;;12.70;99.90;;;;;;5016211;28;20037;-90
2023/05/10 02:52:46;;;;;;;0.20;0.20;;;12.70;99.90;;;;;;5016563;28;20484;-91
2023/05/10 02:55:32;;;;;;;0.10;0.10;;;11.90;99.90;;;;;;5014166;28;20041;-91
2023/05/10 02:58:00;;;;;;;0.10;0.10;;;12.60;99.90;;;;;;5038760;28;20512;-91
2023/05/10 03:00:29;;;;;;;0.20;0.20;;;12.20;99.90;;;;;;5040116;28;20037;-92
2023/05/10 03:02:55;;;;;;;0.10;0.10;;;;;;;;;;5047758;28;20046;-93
2023/05/10 03:05:24;;;;;;;0.20;0.20;;;12.70;99.90;;;;;;5026147;28;20069;-91
2023/05/10 03:07:50;;;;;;;0.10;0.10;;;12.70;99.90;;;;;;5033460;28;20107;-91
2023/05/10 03:10:16;;;;;;;0.10;0.10;;;12.70;99.90;;;;;;5033152;28;20465;-92
2023/05/10 03:13:07;;;;;;;0.20;0.20;;;12.70;99.90;;;;;;5032810;28;20060;-92
2023/05/10 03:15:50;;;;;;;0.10;0.10;;;12.70;99.90;;;;;;5014355;28;20068;-90
2023/05/10 03:18:23;;;;;;;0.20;0.20;;;12.70;99.90;;;;;;5029799;28;20064;-90
2023/05/10 03:20:51;;;;;;;0.10;0.10;;;12.70;99.90;;;;;;5013210;28;20048;-88
2023/05/10 03:23:41;;;;;;;0.10;0.10;;;12.70;99.90;;;;;;5013070;28;20045;-91
2023/05/10 03:26:07;;;;;;;0.20;0.20;;;12.70;99.90;;;;;;5018836;28;20041;-89
2023/05/10 03:28:35;;;;;;;0.20;0.20;;;12.70;99.90;;;;;;5025256;28;20044;-92
2023/05/10 03:31:01;;;;;;;0.10;0.10;;;;;;;;;;5009965;28;20046;-91
2023/05/10 03:33:27;;;;;;;0.10;0.10;;;12.70;99.90;;;;;;5026473;28;20144;-90
2023/05/10 03:35:52;;;;;;;0.20;0.20;;;12.70;99.90;;;;;;5013879;28;20157;-91
2023/05/10 03:38:18;;;;;;;0.15;0.15;;;12.70;99.90;;;;;;5019526;28;20651;-91
2023/05/10 03:40:44;;;;;;;0.20;0.20;;;12.70;99.90;;;;;;5007164;28;20037;-91
2023/05/10 03:43:10;;;;;;;0.20;0.20;;;12.70;99.90;;;;;;5008686;28;20556;-90
2023/05/10 03:45:36;;;;;;;0.17;0.17;;;12.80;99.90;;;;;;5011738;28;20049;-91
2023/05/10 03:48:01;;;;;;;0.20;0.20;;;12.70;99.90;;;;;;5012345;28;20103;-90
2023/05/10 03:50:27;;;;;;;0.20;0.20;;;12.80;99.90;;;;;;5029610;28;20041;-88
2023/05/10 03:52:53;;;;;;;0.10;0.10;;;12.80;99.90;;;;;;5013007;28;20084;-90
2023/05/10 03:55:19;;;;;;;0.13;0.13;;;;;;;;;;5009895;28;20080;-90
2023/05/10 03:57:44;;;;;;;0.10;0.10;;;12.80;99.90;;;;;;5004416;28;20056;-88
2023/05/10 04:00:11;;;;;;;0.20;0.20;;;12.70;99.90;;;;;;5033808;28;20037;-89
2023/05/10 04:02:36;;;;;;;0.10;0.10;;;12.80;99.90;;;;;;5011310;28;20045;-89
2023/05/10 04:05:03;;;;;;;0.20;0.20;;;12.80;99.90;;;;;;5029616;28;20052;-89
2023/05/10 04:07:29;;;;;;;0.20;0.20;;;;;;;;;;5014038;28;20049;-89
2023/05/10 04:09:57;;;;;;;0.13;0.13;;;12.80;99.90;;;;;;5012646;28;20053;-86
2023/05/10 04:12:23;;;;;;;0.20;0.20;;;;;;;;;;5017106;28;20512;-86
2023/05/10 04:14:49;;;;;;;0.10;0.10;;;12.80;99.90;;;;;;5010500;28;20060;-86
2023/05/10 04:17:15;;;;;;;0.13;0.13;;;12.70;99.90;;;;;;5041438;28;20029;-87
2023/05/10 04:19:40;;;;;;;0.10;0.10;;;12.60;99.90;;;;;;5015009;28;20076;-86
2023/05/10 04:22:06;;;;;;;0.20;0.20;;;;;;;;;;5011791;28;20054;-86
2023/05/10 04:24:32;;;;;;;0.20;0.20;;;;;;;;;;5030219;28;20512;-86
2023/05/10 04:26:58;;;;;;;0.20;0.20;;;;;;;;;;5029077;28;20422;-85
2023/05/10 04:29:24;;;;;;;0.20;0.20;;;12.70;99.90;;;;;;5028527;28;20069;-85
2023/05/10 04:31:50;;;;;;;0.13;0.13;;;12.70;99.90;;;;;;5028747;28;20135;-86
2023/05/10 04:34:16;;;;;;;0.10;0.10;;;12.60;99.90;;;;;;5030432;28;20041;-86
2023/05/10 04:36:42;;;;;;;0.20;0.20;;;12.60;99.90;;;;;;5032719;28;20044;-88
2023/05/10 04:39:08;;;;;;;0.20;0.20;;;12.60;99.90;;;;;;5018315;28;20045;-86
2023/05/10 04:41:34;;;;;;;0.20;0.20;;;12.60;99.90;;;;;;5028867;28;20041;-87
2023/05/10 04:44:00;;;;;;;0.22;0.22;;;12.70;99.90;;;;;;5013691;28;20045;-89
2023/05/10 04:46:25;;;;;;;0.20;0.20;;;12.60;99.90;;;;;;5009726;28;20038;-87
2023/05/10 04:48:51;;;;;;;0.10;0.10;;;12.80;99.90;;;;;;5029515;28;20432;-88
2023/05/10 04:51:17;;;;;;;0.20;0.20;;;12.60;99.90;;;;;;5030277;28;20049;-89
2023/05/10 04:53:42;;;;;;;0.10;0.10;;;12.60;99.90;;;;;;5030463;28;20037;-88
2023/05/10 04:56:08;;;;;;;0.20;0.20;;;12.60;99.90;;;;;;5019216;28;20041;-88
2023/05/10 04:58:33;;;;;;;0.20;0.20;;;12.60;99.90;;;;;;5014518;28;20156;-86
2023/05/10 05:01:07;;;;;;;0.20;0.20;;;12.60;99.90;;;;;;5029522;28;20083;-88
2023/05/10 05:03:36;;;;;;;0.10;0.10;;;12.60;99.90;;;;;;5029086;28;20053;-86
2023/05/10 05:06:02;;;;;;;0.20;0.20;;;12.60;99.90;;;;;;5012055;28;20124;-90
2023/05/10 05:08:28;;;;;;;0.10;0.10;;;12.60;99.90;;;;;;5011885;28;20555;-86
2023/05/10 05:10:54;;;;;;;0.20;0.20;;;12.60;99.90;;;;;;5011387;28;20042;-89
2023/05/10 05:13:20;;;;;;;0.20;0.20;;;12.60;99.90;;;;;;5010262;28;20456;-86
2023/05/10 05:15:45;;;;;;;0.10;0.10;;;12.50;99.90;;;;;;5027711;28;20041;-87
2023/05/10 05:18:11;;;;;;;0.20;0.20;;;12.60;99.90;;;;;;5013003;28;20060;-87
2023/05/10 05:20:37;;;;;;;0.10;0.10;;;12.60;99.90;;;;;;5017078;28;20056;-89
2023/05/10 05:23:02;;;;;;;0.10;0.10;;;12.60;99.90;;;;;;5014265;28;20251;-89
2023/05/10 05:25:28;;;;;;;0.10;0.10;;;12.50;99.90;;;;;;5030814;28;20454;-89
2023/05/10 05:27:54;;;;;;;0.10;0.10;;;12.60;99.90;;;;;;5019138;28;20053;-90
2023/05/10 05:30:20;;;;;;;0.10;0.10;;;12.60;99.90;;;;;;5014883;28;20560;-90
2023/05/10 05:32:46;;;;;;;0.20;0.20;;;12.60;99.90;;;;;;5034034;28;20029;-89
2023/05/10 05:35:12;;;;;;;0.38;0.30;;;12.60;99.90;;;;;;5020330;28;20064;-89
2023/05/10 05:37:38;;;;;;;0.20;0.20;;;12.60;99.90;;;;;;5020790;28;20067;-89
2023/05/10 05:40:05;;;;;;;0.10;0.10;;;12.60;99.90;;;;;;5019725;28;20077;-86
2023/05/10 05:42:31;;;;;;;0.20;0.20;;;12.50;99.90;;;;;;5014281;28;20045;-93
2023/05/10 05:44:57;;;;;;;0.10;0.10;;;12.60;99.90;;;;;;5023227;28;20085;-92
2023/05/10 05:47:23;;;;;;;0.20;0.20;;;12.60;99.90;;;;;;5017319;28;20045;-91
2023/05/10 05:49:51;;;;;;;0.10;0.10;;;12.50;99.90;;;;;;5019692;28;20466;-91
2023/05/10 05:52:17;;;;;;;0.20;0.20;;;12.60;99.90;;;;;;5017574;28;20406;-91
2023/05/10 05:54:43;;;;;;;0.20;0.20;;;12.60;99.90;;;;;;5013207;28;20053;-93
2023/05/10 05:57:09;;;;;;;0.20;0.20;;;12.60;99.90;;;;;;5019321;28;20034;-92
2023/05/10 05:59:34;;;;;;;0.20;0.20;;;12.60;99.90;;;;;;5017841;28;20037;-88
2023/05/10 06:02:00;;;;;;;0.20;0.20;;;12.60;99.90;;;;;;5015292;28;20056;-92
2023/05/10 06:04:26;;;;;;;0.20;0.20;;;12.70;99.90;;;;;;5019194;28;20068;-88
2023/05/10 06:06:51;;;;;;;0.13;0.13;;;12.70;99.90;;;;;;5036765;28;20072;-92
2023/05/10 06:09:17;;;;;;;0.20;0.20;;;12.70;99.90;;;;;;5039388;28;20499;-92
2023/05/10 06:11:43;;;;;;;0.20;0.20;;;12.70;99.90;;;;;;5047985;28;20025;-92
2023/05/10 06:14:09;;;;;;;0.10;0.10;;;12.70;99.90;;;;;;5038258;28;20096;-92
2023/05/10 06:16:35;;;;;;;0.10;0.10;;;12.80;99.90;;;;;;5042888;28;20044;-93
2023/05/10 06:19:00;;;;;;;0.13;0.13;;;12.80;99.90;;;;;;5018654;28;20058;-94
2023/05/10 06:21:26;;;;;;;0.10;0.10;;;12.80;99.90;;;;;;5019691;28;20057;-90
2023/05/10 06:23:52;;;;;;;0.13;0.13;;;12.80;99.90;;;;;;5018345;28;20041;-93
2023/05/10 06:26:17;;;;;;;0.13;0.13;;;12.80;99.90;;;;;;5017338;28;20041;-93
2023/05/10 06:28:43;;;;;;;0.10;0.10;;;12.80;99.90;;;;;;5017001;28;20050;-92
2023/05/10 06:31:11;;;;;;;0.10;0.10;;;12.80;99.90;;;;;;5016267;28;20076;-92
2023/05/10 06:33:36;;;;;;;0.20;0.20;;;12.80;99.90;;;;;;5033626;28;20048;-92
2023/05/10 06:36:02;;;;;;;0.20;0.20;;;12.70;99.90;;;;;;5016070;28;20041;-94
2023/05/10 06:38:28;;;;;;;0.17;0.17;;;12.80;99.90;;;;;;5017075;28;20107;-95
2023/05/10 06:40:54;;;;;;;0.10;0.10;;;12.80;99.90;;;;;;5016473;28;20056;-93
2023/05/10 06:43:19;;;;;;;0.20;0.20;;;12.80;99.90;;;;;;5038750;28;20124;-93
2023/05/10 06:45:45;;;;;;;0.20;0.20;;;12.70;99.90;;;;;;5016415;28;20049;-93
2023/05/10 06:48:11;;;;;;;0.10;0.10;;;12.70;99.90;;;;;;5036866;28;20109;-91
2023/05/10 06:50:36;;;;;;;0.20;0.20;;;12.70;99.90;;;;;;5020153;28;20057;-91
2023/05/10 06:53:02;;;;;;;0.20;0.20;;;12.70;99.90;;;;;;5024619;28;20389;-92
2023/05/10 06:55:29;;;;;;;0.20;0.20;;;12.70;99.90;;;;;;5042271;28;20030;-92
2023/05/10 06:57:54;;;;;;;0.13;0.13;;;12.70;99.90;;;;;;5035181;28;20080;-92
2023/05/10 07:00:20;;;;;;;0.20;0.20;;;12.60;99.90;;;;;;5033786;28;20080;-92
2023/05/10 07:02:47;;;;;;;0.20;0.20;;;12.60;99.90;;;;;;5016116;28;20466;-93
2023/05/10 07:05:13;;;;;;;0.20;0.20;;;12.60;99.90;;;;;;5016775;28;20556;-93
2023/05/10 07:07:38;;;;;;;0.17;0.17;;;12.60;99.90;;;;;;5033488;28;20041;-92
2023/05/10 07:10:04;;;;;;;0.10;0.10;;;12.60;99.90;;;;;;5032599;28;20044;-94
2023/05/10 07:12:30;;;;;;;0.10;0.10;;;12.50;99.90;;;;;;5034435;28;20378;-93
2023/05/10 07:14:56;;;;;;;0.20;0.20;;;12.60;99.90;;;;;;5014384;28;20052;-92
2023/05/10 07:17:21;;;;;;;0.17;0.17;;;12.50;99.90;;;;;;5033666;28;20072;-91
2023/05/10 07:19:48;;;;;;;0.20;0.20;;;12.50;99.90;;;;;;5035481;28;20076;-93
2023/05/10 07:22:15;;;;;;;0.17;0.17;;;;;;;;;;5048660;28;20040;-92
2023/05/10 07:24:40;;;;;;;0.20;0.20;;;12.60;99.90;;;;;;5047719;28;20048;-92
2023/05/10 07:27:06;;;;;;;0.20;0.20;;;12.50;99.90;;;;;;5018619;28;20045;-92
2023/05/10 07:29:32;;;;;;;0.10;0.10;;;12.50;99.90;;;;;;5023104;28;20048;-95
2023/05/10 07:31:58;;;;;;;0.13;0.13;;;12.60;99.90;;;;;;5031386;28;20065;-96
2023/05/10 07:34:23;;;;;;;0.20;0.20;;;12.50;99.90;;;;;;5031580;28;20116;-95
2023/05/10 07:36:49;;;;;;;0.10;0.10;;;12.50;99.90;;;;;;5044888;28;20041;-95
2023/05/10 07:39:15;;;;;;;0.20;0.20;;;12.60;99.90;;;;;;5022179;28;20052;-92
2023/05/10 07:41:40;;;;;;;0.10;0.10;;;12.60;99.90;;;;;;5015602;28;20037;-91
2023/05/10 07:44:06;;;;;;;0.10;0.10;;;12.60;99.90;;;;;;5034681;28;20117;-90
2023/05/10 07:46:32;;;;;;;0.15;0.15;;;12.60;99.90;;;;;;5022793;28;20127;-88
2023/05/10 07:48:57;;;;;;;0.10;0.10;;;12.60;99.90;;;;;;5045231;28;20049;-91
2023/05/10 07:51:23;;;;;;;0.10;0.10;;;12.70;99.90;;;;;;5016192;28;20053;-91
2023/05/10 07:53:49;;;;;;;0.20;0.20;;;12.70;99.90;;;;;;5015737;28;20071;-92
2023/05/10 07:56:29;;;;;;;0.10;0.10;;;12.70;99.90;;;;;;5035834;28;20056;-93
2023/05/10 07:59:03;;;;;;;0.10;0.10;;;12.70;99.90;;;;;;5015732;28;20129;-87
2023/05/10 08:01:32;;;;;;;0.20;0.20;;;12.70;99.90;;;;;;5016730;28;20041;-90
2023/05/10 08:03:58;;;;;;;0.20;0.20;;;12.70;99.90;;;;;;5017904;28;20042;-93
2023/05/10 08:06:23;;;;;;;0.20;0.20;;;12.80;99.90;;;;;;5024183;28;20052;-96
2023/05/10 08:08:50;;;;;;;0.13;0.13;;;12.80;99.90;;;;;;5018853;28;20175;-88
2023/05/10 08:11:20;;;;;;;0.15;0.15;;;12.80;99.90;;;;;;5045180;28;20029;-90
2023/05/10 08:13:47;;;;;;;0.20;0.20;;;12.80;99.90;;;;;;5025171;28;20080;-94
2023/05/10 08:16:12;;;;;;;0.10;0.10;;;12.80;99.90;;;;;;5020802;28;20049;-94
2023/05/10 08:18:39;;;;;;;0.10;0.10;;;12.80;99.90;;;;;;5034921;28;20152;-91
2023/05/10 08:21:05;;;;;;;0.20;0.20;;;12.90;99.90;;;;;;5036483;28;20060;-91
2023/05/10 08:23:31;;;;;;;0.10;0.10;;;12.90;99.90;;;;;;5019180;28;20045;-92
2023/05/10 08:25:59;;;;;;;0.20;0.20;;;12.90;99.90;;;;;;5016619;28;20385;-89
2023/05/10 09:21:16;;;;;;;0.10;0.10;;;13.10;99.90;;;;;;5138450;23;20050;-88
2023/05/10 09:23:46;;;;;;;0.20;0.20;;;13.10;99.90;;;;;;4971903;28;20051;-88
2023/05/10 09:26:12;;;;;;;0.20;0.20;;;13.20;99.90;;;;;;4941733;29;20069;-87
2023/05/10 09:29:10;;;;;;;0.15;0.15;;;13.10;99.90;;;;;;4966814;28;20030;-90
2023/05/10 09:31:46;;;;;;;0.20;0.20;;;13.30;99.90;;;;;;4939688;29;20134;-91
2023/05/10 09:34:17;;;;;;;0.17;0.17;;;13.30;99.90;;;;;;4943931;28;20039;-89
2023/05/10 09:36:54;;;;;;;0.20;0.20;;;13.30;99.90;;;;;;4965789;28;20053;-90
2023/05/10 09:39:38;;;;;;;0.20;0.20;;;13.40;99.90;;;;;;4958605;28;20110;-89
2023/05/10 09:55:39;;;;;;;0.20;0.20;;;13.50;99.90;;;;;;5014842;23;20055;-86
2023/05/10 10:17:12;;;;;;;0.10;0.10;;;13.90;99.90;;;;;;4964282;28;20046;-90
2023/05/10 10:23:10;;;;;;;0.10;0.10;;;13.90;99.90;;;;;;5216441;23;20515;-89
2023/05/10 10:29:29;;;;;;;0.10;0.10;;;13.60;99.90;;;;;;4975228;23;20179;-89
2023/05/10 10:32:23;;;;;;;0.20;0.20;;;14.10;99.90;;;;;;4969174;28;20059;-89
2023/05/10 10:34:49;;;;;;;0.10;0.10;;;13.90;99.90;;;;;;4951026;28;20094;-88
2023/05/10 10:37:15;;;;;;;0.20;0.20;;;14.30;99.90;;;;;;4968767;28;20081;-86
2023/05/10 10:39:43;;;;;;;0.10;0.10;;;14.50;99.90;;;;;;4955454;28;20082;-89
2023/05/10 10:42:43;;;;;;;0.10;0.10;;;14.50;99.90;;;;;;4957063;28;20042;-90
2023/05/10 10:47:36;;;;;;;0.10;0.10;;;14.70;99.90;;;;;;5022134;23;20050;-89
2023/05/10 10:50:09;;;;;;;0.10;0.10;;;14.70;99.90;;;;;;5003698;28;20058;-90
2023/05/10 10:52:39;;;;;;;0.10;0.10;;;14.70;99.90;;;;;;4974902;28;20108;-90
2023/05/10 10:55:10;;;;;;;0.10;0.10;;;14.70;99.90;;;;;;4983009;28;20061;-88
2023/05/10 10:57:45;;;;;;;;;;;14.80;99.90;;;;;;4974352;28;20521;-88
2023/05/10 11:00:25;;;;;;;0.20;0.20;;;14.80;99.90;;;;;;4963231;28;19971;-87
2023/05/10 11:02:53;;;;;;;0.10;0.10;;;14.90;99.90;;;;;;4964590;28;20042;-90
2023/05/10 11:05:42;;;;;;;0.20;0.20;;;14.90;99.90;;;;;;4970431;28;20043;-90
2023/05/10 11:08:14;;;;;;;0.20;0.20;;;15.00;99.90;;;;;;4953163;28;20346;-87
2023/05/10 11:10:48;;;;;;;0.20;0.20;;;15.10;99.90;;;;;;4967413;28;20144;-87
2023/05/10 11:13:27;;;;;;;0.20;0.20;;;15.10;99.90;;;;;;4989195;28;20049;-87
2023/05/10 11:15:53;;;;;;;0.20;0.20;;;15.10;99.90;;;;;;4966803;28;20058;-87
2023/05/10 11:18:29;;;;;;;0.10;0.10;;;15.10;99.90;;;;;;4966675;28;20046;-87
2023/05/10 11:21:03;;;;;;;0.20;0.20;;;15.10;99.90;;;;;;4988080;28;20050;-85
2023/05/10 11:23:46;;;;;;;0.20;0.20;;;15.10;99.90;;;;;;4992388;28;20038;-86
2023/05/10 11:26:12;;;;;;;0.20;0.20;;;15.10;99.90;;;;;;4969887;28;20251;-87
2023/05/10 11:28:43;;;;;;;0.20;0.20;;;15.10;99.90;;;;;;4959647;28;20787;-85
2023/05/10 11:31:28;;;;;;;0.20;0.20;;;15.10;99.90;;;;;;4955002;28;20050;-86
2023/05/10 11:33:56;;;;;;;0.10;0.10;;;15.10;99.90;;;;;;4973939;28;20377;-86
2023/05/10 11:36:25;;;;;;;0.20;0.20;;;15.00;99.90;;;;;;4957096;28;20042;-86
2023/05/10 11:38:52;;;;;;;0.10;0.10;;;15.10;99.90;;;;;;4974143;28;20478;-85
2023/05/10 11:41:21;;;;;;;0.13;0.13;;;15.20;99.90;;;;;;4973064;28;20042;-85
2023/05/10 11:43:49;;;;;;;0.20;0.20;;;15.10;99.90;;;;;;4972653;28;20045;-86
2023/05/10 11:46:16;;;;;;;0.10;0.10;;;15.20;99.90;;;;;;4989871;28;20058;-85
2023/05/10 11:48:42;;;;;;;0.20;0.20;;;15.10;99.90;;;;;;4965227;28;20049;-83
2023/05/10 11:51:09;;;;;;;0.10;0.10;;;15.20;99.90;;;;;;4961751;28;20052;-85
2023/05/10 11:53:35;;;;;;;0.10;0.10;;;15.30;99.90;;;;;;4968641;28;20046;-84
2023/05/10 11:56:06;;;;;;;0.10;0.10;;;15.30;99.90;;;;;;4948289;23;20065;-83
2023/05/10 11:58:33;;;;;;;0.13;0.13;;;15.30;99.90;;;;;;4950172;29;20047;-84
2023/05/10 12:01:03;;;;;;;0.20;0.20;;;15.40;99.90;;;;;;4933859;29;20122;-85
2023/05/10 12:03:29;;;;;;;0.15;0.15;;;15.40;99.90;;;;;;4934418;29;20051;-84
2023/05/10 12:05:56;;;;;;;0.10;0.10;;;15.50;99.90;;;;;;4935810;29;20122;-84
2023/05/10 12:08:26;;;;;;;0.20;0.20;;;15.60;99.90;;;;;;4933041;28;20130;-84
2023/05/10 12:11:07;;;;;;;0.20;0.20;;;15.50;99.90;;;;;;4924400;29;20078;-84
2023/05/10 12:13:36;;;;;;;0.10;0.10;;;15.60;99.90;;;;;;4954576;28;20534;-83
2023/05/10 12:16:15;;;;;;;0.20;0.20;;;15.50;99.90;;;;;;4949909;29;20047;-82
2023/05/10 12:18:42;;;;;;;0.20;0.20;;;15.50;99.90;;;;;;4931153;28;20131;-82
2023/05/10 12:21:10;;;;;;;0.20;0.20;;;15.50;99.90;;;;;;4932396;28;20051;-82
2023/05/10 12:23:36;;;;;;;0.45;0.45;;;15.40;99.90;;;;;;4961055;28;20043;-82
2023/05/10 12:26:04;;;;;;;0.10;0.10;;;15.40;99.90;;;;;;4932794;29;20373;-83
2023/05/10 12:28:31;;;;;;;0.20;0.20;;;15.30;99.90;;;;;;4930192;28;20071;-82
2023/05/10 12:30:57;;;;;;;0.20;0.20;;;15.30;99.90;;;;;;4933312;29;20055;-82
2023/05/10 12:33:23;;;;;;;0.10;0.10;;;15.20;99.90;;;;;;4938102;29;20051;-83
2023/05/10 12:35:51;;;;;;;0.10;0.10;;;15.20;99.90;;;;;;4935596;29;20047;-82
2023/05/10 12:38:35;;;;;;;0.10;0.10;;;15.20;99.90;;;;;;4934597;29;20050;-82
2023/05/10 12:41:03;;;;;;;0.20;0.20;;;15.20;99.90;;;;;;4936682;29;20142;-83
2023/05/10 12:43:29;;;;;;;0.20;0.20;;;15.20;99.90;;;;;;4938083;28;20042;-82
2023/05/10 12:45:55;;;;;;;0.20;0.20;;;15.10;99.90;;;;;;4953059;29;20522;-82
2023/05/10 12:48:20;;;;;;;0.20;0.20;;;15.10;99.90;;;;;;4954836;29;20058;-82
2023/05/10 12:50:47;;;;;;;0.13;0.13;;;15.20;99.90;;;;;;4937424;29;20054;-82
2023/05/10 12:53:16;;;;;;;0.17;0.17;;;15.10;99.90;;;;;;4937088;29;20134;-82
2023/05/10 12:55:43;;;;;;;0.10;0.10;;;15.10;99.90;;;;;;4935835;29;20060;-82
2023/05/10 12:58:08;;;;;;;0.20;0.20;;;15.20;99.90;;;;;;4936397;29;20040;-82
2023/05/10 13:00:34;;;;;;;0.20;0.20;;;15.20;99.90;;;;;;4934404;29;20404;-82
2023/05/10 13:03:00;;;;;;;0.20;0.20;;;15.20;99.90;;;;;;4938354;29;20046;-82
2023/05/10 13:05:25;;;;;;;0.17;0.17;;;15.20;99.90;;;;;;4937190;29;20476;-82
2023/05/10 13:07:51;;;;;;;0.20;0.20;;;15.50;99.90;;;;;;4937130;29;20098;-82
2023/05/10 13:10:17;;;;;;;0.13;0.13;;;15.30;99.90;;;;;;4935337;29;20495;-83
2023/05/10 13:12:42;;;;;;;0.13;0.13;;;15.30;99.90;;;;;;4944429;29;20072;-82
2023/05/10 13:15:08;;;;;;;0.10;0.10;;;15.30;99.90;;;;;;4935209;29;20103;-83
2023/05/10 13:17:34;;;;;;;0.20;0.20;;;15.30;99.90;;;;;;4938090;29;20403;-82
2023/05/10 13:19:59;;;;;;;0.20;0.20;;;15.20;99.90;;;;;;4936675;29;20044;-82
2023/05/10 13:22:25;;;;;;;0.20;0.20;;;15.30;99.90;;;;;;4936786;29;20051;-81
2023/05/10 13:24:51;;;;;;;0.20;0.20;;;15.20;99.90;;;;;;4943865;28;20238;-83
2023/05/10 13:27:16;;;;;;;0.20;0.20;;;15.30;99.90;;;;;;4939676;29;20372;-79
2023/05/10 13:29:42;;;;;;;0.20;0.20;;;15.20;99.90;;;;;;4933080;29;20376;-82
2023/05/10 13:32:08;;;;;;;0.20;0.20;;;15.30;99.90;;;;;;4951397;29;20049;-79
2023/05/10 13:34:35;;;;;;;0.20;0.20;;;15.20;99.90;;;;;;4936835;29;20082;-79
2023/05/10 13:37:04;;;;;;;0.20;0.20;;;15.40;99.90;;;;;;4953967;29;20118;-78
2023/05/10 13:39:33;;;;;;;0.20;0.20;;;15.40;99.90;;;;;;4949027;28;20046;-78
2023/05/10 13:41:58;;;;;;;0.20;0.20;;;15.50;99.90;;;;;;4932116;29;20065;-78
2023/05/10 13:44:24;;;;;;;0.20;0.20;;;15.50;99.90;;;;;;4934718;29;20114;-79
2023/05/10 13:46:50;;;;;;;0.13;0.13;;;15.50;99.90;;;;;;4924846;28;21679;-79
2023/05/10 13:49:15;;;;;;;0.10;0.10;;;15.50;99.90;;;;;;4946713;28;20045;-79
2023/05/10 13:51:43;;;;;;;0.20;0.20;;;15.50;99.90;;;;;;4945858;28;20056;-79
2023/05/10 13:54:09;;;;;;;0.20;0.20;;;15.50;99.90;;;;;;4935431;29;20043;-80
2023/05/10 13:56:35;;;;;;;0.10;0.10;;;15.50;99.90;;;;;;4952786;29;20254;-79
2023/05/10 13:59:00;;;;;;;0.20;0.20;;;15.50;99.90;;;;;;4952357;28;20039;-81
2023/05/10 14:01:26;;;;;;;0.20;0.20;;;15.50;99.90;;;;;;4950920;28;20460;-81
2023/05/10 14:03:52;;;;;;;0.20;0.20;;;15.40;99.90;;;;;;4952654;29;20040;-78
2023/05/10 14:06:17;;;;;;;0.20;0.20;;;15.40;99.90;;;;;;4931343;29;20043;-78
2023/05/10 14:08:46;;;;;;;0.10;0.10;;;15.30;99.90;;;;;;4931642;29;20408;-78
2023/05/10 14:11:15;;;;;;;0.20;0.20;;;15.40;99.90;;;;;;4926817;29;20043;-78
2023/05/10 14:13:40;;;;;;;0.10;0.10;;;15.30;99.90;;;;;;4932125;29;20038;-78
2023/05/10 14:16:06;;;;;;;0.15;0.15;;;15.40;99.90;;;;;;4931622;29;20476;-78
2023/05/10 14:18:32;;;;;;;0.20;0.20;;;15.40;99.90;;;;;;4941621;29;20191;-77
2023/05/10 14:20:57;;;;;;;0.20;0.20;;;15.50;99.90;;;;;;4944944;29;20047;-78
2023/05/10 14:23:24;;;;;;;0.10;0.10;;;15.50;99.90;;;;;;4921617;29;20044;-79
2023/05/10 14:25:53;;;;;;;0.20;0.20;;;15.50;99.90;;;;;;4949469;29;20155;-79
2023/05/10 14:28:20;;;;;;;0.10;0.10;;;15.50;99.90;;;;;;4940150;29;20090;-79
2023/05/10 14:30:46;;;;;;;0.10;0.10;;;;;;;;;;4947534;29;20043;-80
2023/05/10 14:33:12;;;;;;;0.10;0.10;;;15.50;99.90;;;;;;5012497;23;20039;-79
2023/05/10 14:35:37;;;;;;;0.10;0.10;;;15.50;99.90;;;;;;4963593;28;20058;-80
2023/05/10 14:38:03;;;;;;;0.20;0.20;;;15.50;99.90;;;;;;4949303;28;20050;-81
2023/05/10 14:40:29;;;;;;;0.20;0.20;;;15.50;99.90;;;;;;4969111;28;20045;-81
2023/05/10 14:42:56;;;;;;;0.20;0.20;;;15.50;99.90;;;;;;4968332;28;20050;-80